Time;durP1;ratioP1;P1;durP2;ratioP2;P2;SDS_P1;SDS_P2;PMS_P1;PMS_P2;Temp;Humidity;BMP_temperature;BMP_pressure;BME280_temperature;BME280_humidity;BME280_pressure;Samples;Min_cycle;Max_cycle;Signal;HPM_P1;HPM_P2
2022/05/07 00:00:58;;;;;;;28.23;26.27;;;10.90;87.00;;;;;;5141900;27;20446;-73
2022/05/07 00:03:24;;;;;;;28.10;26.33;;;10.90;87.20;;;;;;5147921;27;20557;-73
2022/05/07 00:05:51;;;;;;;28.67;26.87;;;10.80;87.30;;;;;;5144371;27;20454;-74
2022/05/07 00:08:18;;;;;;;28.77;26.67;;;10.80;87.40;;;;;;5140888;27;20463;-73
2022/05/07 00:10:45;;;;;;;27.73;26.13;;;10.80;87.30;;;;;;5138535;27;20452;-74
2022/05/07 00:13:12;;;;;;;29.23;27.43;;;10.80;87.20;;;;;;5128150;27;20479;-75
2022/05/07 00:18:01;;;;;;;28.93;27.03;;;10.70;87.20;;;;;;5131501;27;20516;-74
2022/05/07 00:18:28;;;;;;;27.37;25.70;;;10.70;87.10;;;;;;5137025;27;20465;-74
2022/05/07 00:20:55;;;;;;;27.33;25.73;;;10.70;87.10;;;;;;5143665;27;20457;-74
2022/05/07 00:23:22;;;;;;;28.40;26.60;;;10.60;87.30;;;;;;5129295;27;20497;-75
2022/05/07 00:25:49;;;;;;;27.80;25.90;;;10.60;87.30;;;;;;5135926;27;20539;-74
2022/05/07 00:28:16;;;;;;;26.77;25.27;;;10.70;86.90;;;;;;5144596;27;20816;-74
2022/05/07 00:30:44;;;;;;;28.13;26.20;;;10.70;86.80;;;;;;5137801;27;20300;-74
2022/05/07 00:33:11;;;;;;;27.50;25.80;;;10.60;86.80;;;;;;5135231;27;20198;-74
2022/05/07 00:35:37;;;;;;;27.23;25.60;;;10.50;87.50;;;;;;5137984;27;20494;-73
2022/05/07 00:38:04;;;;;;;28.30;26.13;;;10.40;88.20;;;;;;5140554;27;20443;-73
2022/05/07 00:40:31;;;;;;;26.20;24.50;;;10.30;88.20;;;;;;5147231;27;20198;-73
2022/05/07 00:43:01;;;;;;;28.60;26.70;;;10.40;88.10;;;;;;5132086;27;20220;-72
2022/05/07 00:45:28;;;;;;;27.70;26.00;;;10.30;88.10;;;;;;5131887;27;20476;-73
2022/05/07 00:47:56;;;;;;;27.50;25.70;;;10.30;88.20;;;;;;5130956;27;20798;-73
2022/05/07 00:53:22;;;;;;;27.27;25.67;;;10.20;88.30;;;;;;5084243;28;20374;-73
2022/05/07 00:55:51;;;;;;;28.02;26.02;;;10.20;87.90;;;;;;5099523;28;20453;-73
2022/05/07 00:58:18;;;;;;;27.77;26.15;;;10.30;87.70;;;;;;5113916;27;20289;-74
2022/05/07 01:00:45;;;;;;;26.67;25.17;;;10.30;87.80;;;;;;5142026;27;20191;-73
2022/05/07 01:03:15;;;;;;;27.23;25.55;;;10.20;87.80;;;;;;5136683;27;21341;-74
2022/05/07 01:05:44;;;;;;;28.27;26.48;;;10.20;88.10;;;;;;5134804;27;20190;-74
2022/05/07 01:08:12;;;;;;;27.37;25.67;;;10.10;88.10;;;;;;5136917;27;20255;-74
2022/05/07 01:10:39;;;;;;;28.23;26.38;;;10.00;88.90;;;;;;5146790;27;20566;-74
2022/05/07 01:13:07;;;;;;;27.58;25.88;;;10.00;88.70;;;;;;5141062;27;20183;-75
2022/05/07 01:15:43;;;;;;;26.77;25.10;;;10.00;88.60;;;;;;5137692;27;20555;-74
2022/05/07 01:18:10;;;;;;;27.73;25.98;;;10.00;88.40;;;;;;5135679;27;20201;-73
2022/05/07 01:20:38;;;;;;;26.30;24.73;;;9.90;88.40;;;;;;5152854;27;20208;-74
2022/05/07 01:23:07;;;;;;;28.13;26.23;;;9.80;89.00;;;;;;5140645;27;20305;-74
2022/05/07 01:25:34;;;;;;;28.35;26.65;;;9.80;89.20;;;;;;5144153;27;20807;-74
2022/05/07 01:28:02;;;;;;;27.77;25.83;;;9.80;89.10;;;;;;5143564;27;20647;-74
2022/05/07 01:30:28;;;;;;;26.83;25.10;;;9.80;89.10;;;;;;5141375;27;20208;-74
2022/05/07 01:32:55;;;;;;;27.92;26.13;;;9.80;89.00;;;;;;5139733;27;20187;-74
2022/05/07 01:35:22;;;;;;;27.15;25.55;;;9.80;88.80;;;;;;5146586;27;20224;-74
2022/05/07 01:37:49;;;;;;;27.13;25.45;;;9.70;88.70;;;;;;5142091;27;20670;-74
2022/05/07 01:40:17;;;;;;;27.10;25.30;;;9.70;88.60;;;;;;5142209;27;20204;-74
2022/05/07 01:42:44;;;;;;;27.48;25.58;;;9.80;88.50;;;;;;5139049;27;20705;-73
2022/05/07 01:45:11;;;;;;;27.02;25.33;;;9.70;88.70;;;;;;5141028;27;20221;-74
2022/05/07 01:50:23;;;;;;;27.15;25.35;;;9.70;88.80;;;;;;5136046;27;20261;-74
2022/05/07 01:52:50;;;;;;;26.90;25.30;;;9.70;88.50;;;;;;5142096;27;20306;-74
2022/05/07 01:55:18;;;;;;;27.10;25.20;;;9.60;88.70;;;;;;5145572;27;20300;-74
2022/05/07 01:57:45;;;;;;;26.83;24.92;;;9.50;89.10;;;;;;5137228;27;20202;-74
2022/05/07 02:00:13;;;;;;;27.33;25.38;;;9.50;89.40;;;;;;5141742;27;20228;-74
2022/05/07 02:02:40;;;;;;;27.33;25.52;;;9.50;89.50;;;;;;5136698;27;20219;-73
2022/05/07 02:05:07;;;;;;;26.77;25.17;;;9.50;89.80;;;;;;5131332;27;20225;-74
2022/05/07 02:07:34;;;;;;;27.13;25.40;;;9.50;89.60;;;;;;5137730;27;20221;-73
2022/05/07 02:10:04;;;;;;;27.00;25.20;;;9.50;89.60;;;;;;5145157;27;20233;-72
2022/05/07 02:12:32;;;;;;;28.52;26.42;;;9.50;89.50;;;;;;5134501;27;20190;-73
2022/05/07 02:15:00;;;;;;;27.83;26.13;;;9.50;89.40;;;;;;5134572;27;20229;-73
2022/05/07 02:17:27;;;;;;;27.07;25.37;;;9.50;89.50;;;;;;5141915;27;20290;-72
2022/05/07 02:19:53;;;;;;;27.23;25.52;;;9.40;89.50;;;;;;5145032;27;20478;-72
2022/05/07 02:22:20;;;;;;;27.50;25.58;;;9.40;89.30;;;;;;5143546;27;20217;-72
2022/05/07 02:24:47;;;;;;;26.48;24.88;;;9.40;89.00;;;;;;5140755;27;20245;-73
2022/05/07 02:27:14;;;;;;;25.40;23.90;;;9.20;89.10;;;;;;5140777;27;20201;-73
2022/05/07 02:29:42;;;;;;;25.98;24.45;;;9.20;89.50;;;;;;5139789;27;20190;-73
2022/05/07 02:32:13;;;;;;;26.95;25.33;;;9.20;89.40;;;;;;5142591;27;20221;-74
2022/05/07 02:34:41;;;;;;;27.23;25.45;;;9.10;89.90;;;;;;5138017;27;20218;-73
2022/05/07 02:37:09;;;;;;;27.17;25.40;;;9.10;90.00;;;;;;5144138;27;20205;-73
2022/05/07 02:39:36;;;;;;;27.25;25.55;;;9.10;89.90;;;;;;5136391;27;20200;-74
2022/05/07 02:44:49;;;;;;;27.60;25.80;;;9.10;89.50;;;;;;5141886;27;20287;-72
2022/05/07 02:47:17;;;;;;;28.83;26.90;;;9.10;89.30;;;;;;5140849;27;20194;-73
2022/05/07 02:49:43;;;;;;;27.27;25.58;;;9.00;89.70;;;;;;5144946;27;20194;-73
2022/05/07 02:52:10;;;;;;;27.05;25.45;;;9.10;89.50;;;;;;5145556;27;20201;-73
2022/05/07 02:54:37;;;;;;;28.08;26.17;;;9.00;89.60;;;;;;5142467;27;20273;-73
2022/05/07 02:57:05;;;;;;;27.13;25.40;;;9.00;89.80;;;;;;5141336;27;20199;-73
2022/05/07 02:59:32;;;;;;;26.77;24.98;;;8.90;89.80;;;;;;5143542;27;20191;-74
2022/05/07 03:02:03;;;;;;;27.15;25.25;;;8.90;89.90;;;;;;5143171;27;20547;-73
2022/05/07 03:04:30;;;;;;;26.92;25.23;;;8.90;89.80;;;;;;5143347;27;20218;-72
2022/05/07 03:06:57;;;;;;;27.02;25.50;;;8.80;90.20;;;;;;5134633;27;20189;-73
2022/05/07 03:09:24;;;;;;;26.08;24.45;;;8.80;90.50;;;;;;5138120;27;20195;-74
2022/05/07 03:11:51;;;;;;;26.90;25.17;;;8.70;90.70;;;;;;5136128;27;20272;-73
2022/05/07 03:14:18;;;;;;;27.08;25.17;;;8.80;90.60;;;;;;5138334;27;20773;-72
2022/05/07 03:16:47;;;;;;;26.80;25.15;;;8.80;90.40;;;;;;5142863;27;20564;-73
2022/05/07 03:19:15;;;;;;;26.90;25.20;;;8.80;90.30;;;;;;5141338;27;20252;-72
2022/05/07 03:21:42;;;;;;;25.85;24.25;;;8.90;90.10;;;;;;5136900;27;20285;-73
2022/05/07 03:24:10;;;;;;;27.20;25.38;;;8.70;89.80;;;;;;5131773;27;20274;-73
2022/05/07 03:26:37;;;;;;;27.00;25.27;;;8.80;89.90;;;;;;5160682;27;20233;-72
2022/05/07 03:29:03;;;;;;;26.38;24.85;;;8.90;89.40;;;;;;5144777;27;20185;-73
2022/05/07 03:31:32;;;;;;;28.23;26.33;;;8.80;89.50;;;;;;5148937;27;20324;-73
2022/05/07 03:33:59;;;;;;;27.33;25.52;;;8.70;89.90;;;;;;5134387;27;20664;-73
2022/05/07 03:36:28;;;;;;;26.80;25.15;;;8.70;90.40;;;;;;5149767;27;20198;-73
2022/05/07 03:38:54;;;;;;;27.15;25.20;;;8.70;90.30;;;;;;5130448;27;20236;-73
2022/05/07 03:41:21;;;;;;;26.85;25.17;;;8.70;90.20;;;;;;5132427;27;20226;-73
2022/05/07 03:43:51;;;;;;;27.58;25.48;;;8.80;89.70;;;;;;5135365;27;20216;-73
2022/05/07 03:46:18;;;;;;;28.10;26.30;;;8.80;89.30;;;;;;5146139;27;20453;-73
2022/05/07 03:48:45;;;;;;;26.50;24.95;;;8.90;89.30;;;;;;5136267;27;20190;-73
2022/05/07 03:51:11;;;;;;;27.15;25.35;;;8.70;89.70;;;;;;5137769;27;20198;-72
2022/05/07 03:53:39;;;;;;;28.45;26.75;;;8.60;90.20;;;;;;5142673;27;20210;-73
2022/05/07 03:56:07;;;;;;;27.58;25.65;;;8.60;90.40;;;;;;5150892;27;20201;-72
2022/05/07 03:58:35;;;;;;;27.73;25.92;;;8.60;90.60;;;;;;5131550;27;20648;-71
2022/05/07 04:01:02;;;;;;;27.58;25.88;;;8.50;90.60;;;;;;5131459;27;20226;-71
2022/05/07 04:03:31;;;;;;;26.63;24.92;;;8.60;90.50;;;;;;5138870;27;20460;-71
2022/05/07 04:05:59;;;;;;;28.02;25.85;;;8.60;90.20;;;;;;5150245;27;20286;-72
2022/05/07 04:08:28;;;;;;;27.10;25.20;;;8.60;90.10;;;;;;5150916;27;20194;-71
2022/05/07 04:10:57;;;;;;;26.30;24.60;;;8.60;90.50;;;;;;5143106;27;20186;-72
2022/05/07 04:13:24;;;;;;;27.23;25.52;;;8.50;90.70;;;;;;5142898;27;20192;-76
2022/05/07 04:15:51;;;;;;;26.60;24.77;;;8.50;90.60;;;;;;5137997;27;20193;-76
2022/05/07 04:18:17;;;;;;;27.30;25.60;;;8.60;90.20;;;;;;5136182;27;20281;-75
2022/05/07 04:20:44;;;;;;;27.05;25.40;;;8.60;90.10;;;;;;5130790;27;20756;-78
2022/05/07 04:23:12;;;;;;;27.33;25.63;;;8.60;90.10;;;;;;5134674;27;20209;-77
2022/05/07 04:25:39;;;;;;;26.60;24.98;;;8.70;90.20;;;;;;5147796;27;20197;-78
2022/05/07 04:28:07;;;;;;;27.20;25.40;;;8.70;90.20;;;;;;5137505;27;20679;-76
2022/05/07 04:30:35;;;;;;;27.38;25.67;;;8.70;89.70;;;;;;5131723;27;20288;-77
2022/05/07 04:33:01;;;;;;;26.70;25.15;;;8.80;89.20;;;;;;5148457;27;20185;-79
2022/05/07 04:35:29;;;;;;;26.40;24.80;;;8.80;89.00;;;;;;5134188;27;20206;-76
2022/05/07 04:37:56;;;;;;;26.33;24.63;;;8.90;88.50;;;;;;5134297;27;20198;-78
2022/05/07 04:40:23;;;;;;;26.20;24.50;;;8.90;88.80;;;;;;5136059;27;20194;-76
2022/05/07 04:42:50;;;;;;;26.42;24.73;;;9.00;88.90;;;;;;5151667;27;20193;-79
2022/05/07 04:45:18;;;;;;;25.73;24.17;;;9.00;88.50;;;;;;5145578;27;20240;-78
2022/05/07 04:47:45;;;;;;;26.17;24.58;;;9.00;88.40;;;;;;5133099;27;20346;-71
2022/05/07 04:50:13;;;;;;;26.50;24.90;;;9.00;88.50;;;;;;5153368;27;20197;-71
2022/05/07 04:52:40;;;;;;;27.15;25.50;;;9.00;88.70;;;;;;5154304;27;20727;-73
2022/05/07 04:55:07;;;;;;;27.05;25.45;;;9.10;88.50;;;;;;5153831;27;20242;-71
2022/05/07 04:57:34;;;;;;;29.38;27.25;;;9.20;88.20;;;;;;5151017;27;20581;-71
2022/05/07 05:00:03;;;;;;;26.55;25.05;;;9.30;87.80;;;;;;5140404;27;20190;-71
2022/05/07 05:02:31;;;;;;;26.33;24.63;;;9.30;87.60;;;;;;5137727;27;20271;-72
2022/05/07 05:04:58;;;;;;;27.65;25.95;;;9.40;87.40;;;;;;5142457;27;20687;-74
2022/05/07 05:07:25;;;;;;;27.27;25.48;;;9.50;87.00;;;;;;5147790;27;20393;-72
2022/05/07 05:09:52;;;;;;;27.42;25.80;;;9.50;87.20;;;;;;5145145;27;20210;-73
2022/05/07 05:12:19;;;;;;;27.58;25.98;;;9.60;87.20;;;;;;5149581;27;20513;-71
2022/05/07 05:15:05;;;;;;;26.50;24.90;;;9.80;87.00;;;;;;5147963;27;20292;-71
2022/05/07 05:17:34;;;;;;;27.20;25.27;;;9.90;86.00;;;;;;5138608;27;20209;-73
2022/05/07 05:20:02;;;;;;;27.17;25.52;;;9.90;85.80;;;;;;5139858;27;20271;-73
2022/05/07 05:22:30;;;;;;;27.38;25.52;;;9.80;86.20;;;;;;5149091;27;20202;-72
2022/05/07 05:24:57;;;;;;;27.58;25.80;;;9.90;86.10;;;;;;5153847;27;20287;-73
2022/05/07 05:27:24;;;;;;;28.13;26.30;;;10.00;86.00;;;;;;5145556;27;20189;-73
2022/05/07 05:29:51;;;;;;;26.97;25.23;;;10.10;86.10;;;;;;5147604;27;20225;-73
2022/05/07 05:32:18;;;;;;;28.10;26.30;;;10.40;85.80;;;;;;5146629;27;20454;-73
2022/05/07 05:34:52;;;;;;;27.20;25.53;;;10.50;85.60;;;;;;5135283;27;20240;-72
2022/05/07 05:37:19;;;;;;;27.70;25.80;;;10.70;85.10;;;;;;5140250;27;20827;-73
2022/05/07 05:39:46;;;;;;;28.10;26.10;;;10.90;83.80;;;;;;5137963;27;20465;-73
2022/05/07 05:42:13;;;;;;;26.70;25.20;;;10.90;83.10;;;;;;5135968;27;20833;-76
2022/05/07 05:44:41;;;;;;;27.83;26.23;;;10.90;82.90;;;;;;5139262;27;20482;-74
2022/05/07 05:47:09;;;;;;;28.37;26.57;;;11.00;82.80;;;;;;5138614;27;20452;-74
2022/05/07 05:49:36;;;;;;;27.87;26.27;;;11.10;82.90;;;;;;5148131;27;20459;-74
2022/05/07 05:52:06;;;;;;;27.90;26.30;;;11.30;82.40;;;;;;5136358;27;20458;-73
2022/05/07 05:54:33;;;;;;;27.70;26.10;;;11.40;81.70;;;;;;5152330;27;20875;-74
2022/05/07 05:57:01;;;;;;;29.73;27.83;;;11.60;81.40;;;;;;5143357;27;20456;-73
2022/05/07 05:59:28;;;;;;;29.43;27.33;;;11.70;80.80;;;;;;5149686;27;20542;-72
2022/05/07 06:01:55;;;;;;;29.73;27.67;;;11.90;80.70;;;;;;5149313;27;20469;-72
2022/05/07 06:04:22;;;;;;;29.07;27.17;;;12.10;80.10;;;;;;5139787;27;20472;-72
2022/05/07 06:06:49;;;;;;;29.43;27.50;;;12.20;79.20;;;;;;5132690;27;20452;-72
2022/05/07 06:09:18;;;;;;;31.73;29.33;;;12.20;79.30;;;;;;5144644;27;20816;-72
2022/05/07 06:11:45;;;;;;;31.77;29.37;;;12.20;79.30;;;;;;5142864;27;20459;-72
2022/05/07 06:14:12;;;;;;;29.87;27.97;;;12.30;79.10;;;;;;5142026;27;20471;-72
2022/05/07 06:16:39;;;;;;;30.47;28.57;;;12.50;79.20;;;;;;5149518;27;20451;-73
2022/05/07 06:19:07;;;;;;;29.63;27.60;;;12.60;78.50;;;;;;5137755;27;20817;-72
2022/05/07 06:21:34;;;;;;;31.23;29.10;;;12.80;77.90;;;;;;5139453;27;20533;-74
2022/05/07 06:29:31;;;;;;;31.43;29.53;;;13.10;76.40;;;;;;5151353;27;20442;-74
2022/05/07 06:31:58;;;;;;;31.23;29.37;;;13.10;76.20;;;;;;5142894;27;20494;-74
2022/05/07 06:34:25;;;;;;;31.00;29.10;;;13.20;76.10;;;;;;5151229;27;20471;-74
2022/05/07 06:36:54;;;;;;;31.13;29.13;;;13.20;76.10;;;;;;5138361;27;20539;-74
2022/05/07 06:39:21;;;;;;;30.90;28.90;;;13.40;75.70;;;;;;5144851;27;20576;-73
2022/05/07 06:41:50;;;;;;;31.50;29.30;;;13.60;75.10;;;;;;5139122;27;20462;-72
2022/05/07 06:44:17;;;;;;;31.63;29.63;;;13.80;74.60;;;;;;5148898;27;20518;-72
2022/05/07 06:46:45;;;;;;;32.30;30.10;;;13.90;74.10;;;;;;5146821;27;20459;-73
2022/05/07 06:49:14;;;;;;;32.57;30.47;;;13.90;74.10;;;;;;5138302;27;20468;-73
2022/05/07 06:51:41;;;;;;;33.90;31.40;;;14.00;73.70;;;;;;5142377;27;20451;-73
2022/05/07 06:54:10;;;;;;;34.33;32.07;;;14.10;73.40;;;;;;5143441;27;20479;-73
2022/05/07 06:56:37;;;;;;;36.20;33.70;;;14.20;73.50;;;;;;5138959;27;21268;-73
2022/05/07 06:59:09;;;;;;;36.53;33.77;;;14.40;73.20;;;;;;5147256;27;20933;-73
2022/05/07 07:01:39;;;;;;;35.53;33.17;;;14.40;72.90;;;;;;5144863;27;20460;-72
2022/05/07 07:04:07;;;;;;;36.77;33.90;;;14.50;73.00;;;;;;5146979;27;20483;-73
2022/05/07 07:06:34;;;;;;;34.63;32.20;;;14.60;72.80;;;;;;5137600;27;20863;-73
2022/05/07 07:09:01;;;;;;;33.97;31.57;;;14.60;72.70;;;;;;5136964;27;20602;-73
2022/05/07 07:11:28;;;;;;;34.27;31.70;;;14.60;72.70;;;;;;5134387;27;20456;-73
2022/05/07 07:13:58;;;;;;;34.40;32.00;;;14.80;73.00;;;;;;5136361;27;20475;-72
2022/05/07 07:16:29;;;;;;;37.17;34.73;;;14.90;72.70;;;;;;5143408;27;21315;-73
2022/05/07 07:18:55;;;;;;;34.57;32.17;;;15.10;72.00;;;;;;5139805;27;20464;-73
2022/05/07 07:21:22;;;;;;;36.47;34.17;;;15.10;72.00;;;;;;5146157;27;20496;-73
2022/05/07 07:23:49;;;;;;;35.57;32.90;;;15.30;72.00;;;;;;5139472;27;20472;-73
2022/05/07 07:26:16;;;;;;;35.07;32.77;;;15.30;72.10;;;;;;5144447;27;20541;-73
2022/05/07 07:28:43;;;;;;;34.83;32.30;;;15.40;72.00;;;;;;5150057;27;20542;-73
2022/05/07 07:31:10;;;;;;;35.00;32.67;;;15.50;71.60;;;;;;5141380;27;20876;-74
2022/05/07 07:33:39;;;;;;;36.63;34.13;;;15.60;71.30;;;;;;5141366;27;20471;-74
2022/05/07 07:36:07;;;;;;;35.10;32.83;;;15.70;71.10;;;;;;5134249;27;21092;-74
2022/05/07 07:38:34;;;;;;;35.57;32.70;;;15.90;70.50;;;;;;5133497;27;20551;-74
2022/05/07 07:41:04;;;;;;;35.73;33.13;;;15.90;69.90;;;;;;5137827;27;20454;-74
2022/05/07 07:43:31;;;;;;;34.60;32.10;;;15.90;70.00;;;;;;5141366;27;20480;-74
2022/05/07 07:48:46;;;;;;;32.53;30.40;;;16.10;69.10;;;;;;5137659;27;20967;-74
2022/05/07 07:51:13;;;;;;;33.03;30.93;;;16.20;68.10;;;;;;5134556;27;20447;-73
2022/05/07 07:53:40;;;;;;;33.27;31.07;;;16.30;67.10;;;;;;5143610;27;20472;-73
2022/05/07 07:56:08;;;;;;;33.30;31.10;;;16.30;66.50;;;;;;5135993;27;20454;-74
2022/05/07 07:58:36;;;;;;;31.07;28.90;;;16.40;66.40;;;;;;5141226;27;20458;-74
2022/05/07 08:01:03;;;;;;;41.70;33.17;;;16.40;65.40;;;;;;5138603;27;20451;-74
2022/05/07 08:04:16;;;;;;;36.30;33.50;;;16.60;65.30;;;;;;5134141;27;20972;-73
2022/05/07 08:11:39;;;;;;;32.57;30.47;;;16.70;65.00;;;;;;5134697;27;20452;-74
2022/05/07 08:12:15;;;;;;;34.87;32.47;;;16.90;64.10;;;;;;5136756;27;20525;-74
2022/05/07 08:14:42;;;;;;;37.00;34.30;;;16.70;63.90;;;;;;5137253;27;20474;-74
2022/05/07 08:17:09;;;;;;;34.90;32.60;;;16.60;64.70;;;;;;5141515;27;20963;-73
2022/05/07 08:19:36;;;;;;;35.33;32.83;;;16.60;64.90;;;;;;5138161;27;20470;-73
2022/05/07 08:22:05;;;;;;;35.13;32.93;;;16.60;65.20;;;;;;5135886;27;20960;-73
2022/05/07 08:24:32;;;;;;;35.10;32.80;;;16.70;65.70;;;;;;5136556;27;20480;-72
2022/05/07 08:26:59;;;;;;;34.73;32.33;;;16.70;65.60;;;;;;5145406;27;20462;-72
2022/05/07 08:29:27;;;;;;;37.17;34.57;;;16.80;65.50;;;;;;5134436;27;20452;-72
2022/05/07 08:31:54;;;;;;;34.57;32.37;;;16.80;65.50;;;;;;5132725;27;20459;-73
2022/05/07 08:34:21;;;;;;;35.87;33.47;;;17.00;65.50;;;;;;5131171;27;20474;-73
2022/05/07 08:36:48;;;;;;;35.70;33.30;;;17.10;65.40;;;;;;5131498;27;20467;-73
2022/05/07 08:39:16;;;;;;;36.37;33.67;;;17.20;65.50;;;;;;5143928;27;20466;-73
2022/05/07 08:41:43;;;;;;;35.90;33.50;;;17.30;64.70;;;;;;5134075;27;20467;-73
2022/05/07 08:44:10;;;;;;;36.97;34.40;;;17.30;64.70;;;;;;5134682;27;20837;-73
2022/05/07 08:46:39;;;;;;;37.63;34.77;;;17.40;64.40;;;;;;5142450;27;20456;-73
2022/05/07 08:49:06;;;;;;;38.10;35.30;;;17.60;64.00;;;;;;5137103;27;20467;-73
2022/05/07 08:51:33;;;;;;;37.73;35.13;;;17.60;64.00;;;;;;5146233;27;20555;-73
2022/05/07 08:54:02;;;;;;;36.17;33.57;;;17.60;64.40;;;;;;5140668;27;20476;-73
2022/05/07 08:56:30;;;;;;;36.53;34.10;;;17.60;64.40;;;;;;5140198;27;20552;-73
2022/05/07 08:58:57;;;;;;;39.60;36.80;;;17.70;64.30;;;;;;5143916;27;21034;-74
2022/05/07 09:01:24;;;;;;;37.00;34.63;;;18.00;63.60;;;;;;5139779;27;20455;-72
2022/05/07 09:03:51;;;;;;;39.30;36.53;;;18.10;63.30;;;;;;5138711;27;20549;-72
2022/05/07 09:06:36;;;;;;;37.07;34.03;;;17.90;63.60;;;;;;5138973;27;21542;-71
2022/05/07 09:09:06;;;;;;;37.93;35.33;;;17.90;64.00;;;;;;5135959;27;20467;-73
2022/05/07 09:11:47;;;;;;;39.80;36.87;;;17.90;63.50;;;;;;5142786;27;20455;-73
2022/05/07 09:14:31;;;;;;;37.40;34.67;;;18.10;63.30;;;;;;5138910;27;21090;-73
2022/05/07 09:17:00;;;;;;;38.30;35.57;;;18.20;63.40;;;;;;5142531;27;20460;-73
2022/05/07 09:19:30;;;;;;;39.50;36.80;;;18.30;63.30;;;;;;5140783;27;20509;-73
2022/05/07 09:22:05;;;;;;;36.23;33.73;;;18.50;62.40;;;;;;5145056;27;20498;-75
2022/05/07 09:24:33;;;;;;;33.97;31.53;;;18.50;62.00;;;;;;5140791;27;20475;-72
2022/05/07 09:27:03;;;;;;;32.60;30.50;;;18.60;61.00;;;;;;5143014;27;20994;-73
2022/05/07 09:29:32;;;;;;;32.50;30.40;;;18.70;58.20;;;;;;5140715;27;20467;-74
2022/05/07 09:32:08;;;;;;;32.83;30.87;;;18.70;59.10;;;;;;5151921;27;20901;-73
2022/05/07 09:37:35;;;;;;;32.17;29.97;;;18.80;58.90;;;;;;5135243;27;20871;-74
2022/05/07 09:40:06;;;;;;;31.73;29.83;;;18.80;58.20;;;;;;5139744;27;20455;-72
2022/05/07 09:42:35;;;;;;;29.77;27.50;;;18.80;57.50;;;;;;5150852;27;20454;-73
2022/05/07 09:45:03;;;;;;;28.63;26.90;;;18.90;55.20;;;;;;5145646;27;20482;-72
2022/05/07 09:47:31;;;;;;;31.40;29.33;;;19.00;54.30;;;;;;5147891;27;20451;-73
2022/05/07 09:57:30;;;;;;;28.10;26.50;;;19.00;54.30;;;;;;5151428;27;20458;-72
2022/05/07 09:58:19;;;;;;;28.30;26.60;;;19.50;52.80;;;;;;5136986;27;20564;-72
2022/05/07 10:01:03;;;;;;;25.80;24.50;;;19.60;51.70;;;;;;5142184;27;20458;-72
2022/05/07 10:03:41;;;;;;;25.57;24.17;;;19.60;48.00;;;;;;5149259;27;20578;-75
2022/05/07 10:06:29;;;;;;;27.70;25.87;;;19.80;48.90;;;;;;5147685;27;20489;-74
2022/05/07 10:09:10;;;;;;;28.27;26.57;;;19.80;49.50;;;;;;5146063;27;20463;-75
2022/05/07 10:11:37;;;;;;;26.80;25.20;;;19.80;49.90;;;;;;5147289;27;20459;-74
2022/05/07 10:14:06;;;;;;;25.83;24.40;;;20.00;49.10;;;;;;5147933;27;20973;-73
2022/05/07 10:16:33;;;;;;;25.70;24.30;;;20.00;45.90;;;;;;5136578;27;20452;-74
2022/05/07 10:19:10;;;;;;;25.80;24.30;;;20.10;44.70;;;;;;5135912;27;20486;-73
2022/05/07 10:21:37;;;;;;;26.53;24.87;;;20.30;45.70;;;;;;5144433;27;20490;-74
2022/05/07 10:24:05;;;;;;;25.97;24.47;;;20.60;46.10;;;;;;5137589;27;20476;-74
2022/05/07 10:26:40;;;;;;;26.77;25.27;;;20.70;46.20;;;;;;5141058;27;21159;-73
2022/05/07 10:29:09;;;;;;;26.80;25.30;;;20.40;47.40;;;;;;5144642;27;20801;-71
2022/05/07 10:31:45;;;;;;;27.10;25.40;;;20.30;46.10;;;;;;5136039;27;20528;-72
2022/05/07 10:34:23;;;;;;;27.27;25.77;;;20.40;46.80;;;;;;5142723;27;22319;-72
2022/05/07 10:37:04;;;;;;;27.00;25.40;;;20.60;47.60;;;;;;5145372;27;20463;-73
2022/05/07 10:39:32;;;;;;;26.63;25.23;;;20.70;46.80;;;;;;5139762;27;20546;-76
2022/05/07 10:42:00;;;;;;;26.57;25.07;;;20.80;46.80;;;;;;5141675;27;20455;-77
2022/05/07 10:44:32;;;;;;;26.10;24.60;;;20.80;46.90;;;;;;5143172;27;20535;-76
2022/05/07 10:47:10;;;;;;;26.50;24.90;;;21.00;45.00;;;;;;5139248;27;20471;-76
2022/05/07 10:49:50;;;;;;;27.90;26.30;;;21.00;44.60;;;;;;5146908;27;20443;-75
2022/05/07 10:52:28;;;;;;;27.43;25.53;;;20.70;46.00;;;;;;5142373;27;20448;-76
2022/05/07 10:55:04;;;;;;;26.63;25.07;;;20.40;48.40;;;;;;5139830;27;22856;-77
2022/05/07 10:57:41;;;;;;;26.67;25.17;;;20.30;49.10;;;;;;5140848;27;20477;-76
2022/05/07 11:00:17;;;;;;;26.63;25.03;;;20.50;49.30;;;;;;5150436;27;20537;-73
2022/05/07 11:02:46;;;;;;;28.83;26.90;;;20.90;49.10;;;;;;5144674;27;20455;-74
2022/05/07 11:05:13;;;;;;;28.10;26.50;;;20.90;48.90;;;;;;5131815;27;20479;-74
2022/05/07 11:07:41;;;;;;;28.50;26.80;;;20.90;48.70;;;;;;5133443;27;20539;-73
2022/05/07 11:10:09;;;;;;;26.90;25.33;;;21.20;48.40;;;;;;5142280;27;20500;-73
2022/05/07 11:12:38;;;;;;;32.13;26.10;;;21.40;48.30;;;;;;5135703;27;21343;-73
2022/05/07 11:15:06;;;;;;;26.47;25.00;;;21.60;48.40;;;;;;5143312;27;20475;-73
2022/05/07 11:17:36;;;;;;;28.27;26.10;;;21.60;48.00;;;;;;5148379;27;20449;-73
2022/05/07 11:20:04;;;;;;;27.73;26.13;;;21.50;47.80;;;;;;5137861;27;20989;-74
2022/05/07 11:22:31;;;;;;;26.80;25.40;;;21.30;48.10;;;;;;5130978;27;20821;-73
2022/05/07 11:25:00;;;;;;;26.37;24.87;;;20.90;48.60;;;;;;5136686;27;20527;-73
2022/05/07 11:27:32;;;;;;;27.73;26.03;;;20.70;48.70;;;;;;5132591;27;20462;-73
2022/05/07 11:30:01;;;;;;;26.73;25.23;;;20.40;48.80;;;;;;5150084;27;20465;-72
2022/05/07 11:32:41;;;;;;;27.60;26.00;;;20.50;49.30;;;;;;5138704;27;20499;-72
2022/05/07 11:35:11;;;;;;;26.60;25.00;;;20.70;50.70;;;;;;5151039;27;20475;-72
2022/05/07 11:37:41;;;;;;;26.60;25.10;;;21.00;47.20;;;;;;5144475;27;20467;-72
2022/05/07 11:40:13;;;;;;;26.20;24.80;;;20.90;46.50;;;;;;5137334;27;20459;-72
2022/05/07 11:42:46;;;;;;;26.60;25.00;;;20.90;45.60;;;;;;5150981;27;20819;-72
2022/05/07 11:45:29;;;;;;;26.53;25.13;;;20.80;45.20;;;;;;5136379;27;21051;-72
2022/05/07 11:48:23;;;;;;;27.50;26.00;;;20.70;45.50;;;;;;5139818;27;20449;-72
2022/05/07 11:50:55;;;;;;;27.63;25.97;;;20.40;46.70;;;;;;5147032;27;20447;-73
2022/05/07 11:53:27;;;;;;;28.20;26.43;;;20.70;46.50;;;;;;5137748;27;20486;-73
2022/05/07 11:56:05;;;;;;;26.50;24.80;;;21.00;45.00;;;;;;5133664;27;20452;-72
2022/05/07 11:58:40;;;;;;;26.77;25.27;;;21.20;45.20;;;;;;5137093;27;20939;-74
2022/05/07 12:01:19;;;;;;;27.93;26.27;;;21.30;45.50;;;;;;5148846;27;21034;-74
2022/05/07 12:03:47;;;;;;;28.00;26.20;;;21.60;44.20;;;;;;5140855;27;20485;-74
2022/05/07 12:06:27;;;;;;;26.97;25.33;;;21.60;44.50;;;;;;5133331;27;20991;-74
2022/05/07 12:08:54;;;;;;;27.60;26.00;;;21.80;44.10;;;;;;5149407;27;20447;-74
2022/05/07 12:11:21;;;;;;;26.37;24.97;;;21.90;42.70;;;;;;5137693;27;20882;-73
2022/05/07 12:13:49;;;;;;;25.43;24.03;;;21.70;42.70;;;;;;5140223;27;20562;-74
2022/05/07 12:19:05;;;;;;;26.50;25.00;;;21.30;44.30;;;;;;5128715;27;20854;-74
2022/05/07 12:29:57;;;;;;;26.10;24.53;;;21.70;43.30;;;;;;5131396;27;20508;-74
2022/05/07 12:32:24;;;;;;;27.23;25.73;;;22.00;43.40;;;;;;5135001;27;20940;-74
2022/05/07 12:34:53;;;;;;;26.00;24.50;;;22.20;43.10;;;;;;5147891;27;20539;-74
2022/05/07 12:37:20;;;;;;;27.27;25.63;;;22.30;43.30;;;;;;5148276;27;20453;-74
2022/05/07 12:39:47;;;;;;;27.37;25.87;;;22.70;42.80;;;;;;5133234;27;20569;-74
2022/05/07 12:42:15;;;;;;;27.33;25.70;;;22.40;43.70;;;;;;5146978;27;20530;-74
2022/05/07 12:44:46;;;;;;;25.80;24.40;;;22.50;43.90;;;;;;5137035;27;20737;-74
2022/05/07 12:47:14;;;;;;;27.57;25.57;;;22.40;44.10;;;;;;5143409;27;20486;-74
2022/05/07 12:49:41;;;;;;;29.00;27.60;;;22.30;44.50;;;;;;5133066;27;20472;-74
2022/05/07 12:52:10;;;;;;;25.60;24.00;;;22.40;44.30;;;;;;5145168;27;20848;-74
2022/05/07 12:54:37;;;;;;;26.50;24.80;;;22.60;44.20;;;;;;5143752;27;20486;-74
2022/05/07 12:57:06;;;;;;;26.50;24.93;;;22.50;44.50;;;;;;5152476;27;20805;-74
2022/05/07 12:59:33;;;;;;;26.70;25.00;;;22.70;43.90;;;;;;5145714;27;20975;-74
2022/05/07 13:02:03;;;;;;;26.30;24.63;;;22.90;43.70;;;;;;5143158;27;20468;-74
2022/05/07 13:04:30;;;;;;;27.20;25.50;;;23.10;42.50;;;;;;5139360;27;20480;-74
2022/05/07 13:06:57;;;;;;;25.67;24.27;;;23.10;42.70;;;;;;5144799;27;21010;-72
2022/05/07 13:09:26;;;;;;;26.53;24.83;;;23.00;43.40;;;;;;5146838;27;20446;-72
2022/05/07 13:11:53;;;;;;;25.97;24.20;;;23.10;43.00;;;;;;5146920;27;20447;-73
2022/05/07 13:14:20;;;;;;;25.50;24.10;;;23.40;42.00;;;;;;5133982;27;20472;-73
2022/05/07 13:16:48;;;;;;;27.97;26.27;;;23.20;41.70;;;;;;5135242;27;20859;-73
2022/05/07 13:19:15;;;;;;;29.00;27.50;;;23.10;41.70;;;;;;5132912;27;20976;-73